• Join FlightAware (Why Join?)
  • Login
  • US Flag 
10:14PM EDT


 

Airport Tracker/Info


-or-


 

Live Flight TrackerFlight Track Log ✈ AVN10 ✈ 04-Apr-2014 ✈ NVVV / VLI - YSSY / SYD

Flight Track Log - Related Links

Times and Time Zones

All times are in EDT time to prevent confusion due to time zone crossing. See the AVN10 flight status page for this flight to view local times or setup timezone preferences in your user account.

Time Position Orientation Groundspeed Altitude Reporting Facility
EDT Latitude Longitude Course Direction KTS MPH feet Rate Location/Type
04:04PM -18.0439 168.0150 220° Southwest  Level Estimated
04:05PM -18.1128 167.9539 220° Southwest  Level Estimated
04:06PM -18.1816 167.8928 220° Southwest  Level Estimated
04:07PM -18.2505 167.8316 220° Southwest  Level Estimated
04:08PM -18.3193 167.7704 220° Southwest  Level Estimated
04:09PM -18.3880 167.7091 220° Southwest  Level Estimated
04:10PM -18.4568 167.6478 220° Southwest  Level Estimated
04:11PM -18.5255 167.5864 220° Southwest  Level Estimated
04:12PM -18.5943 167.5249 220° Southwest  Level Estimated
04:13PM -18.6630 167.4635 220° Southwest  Level Estimated
04:14PM -18.7317 167.4019 220° Southwest  Level Estimated
04:15PM -18.8003 167.3403 220° Southwest  Level Estimated
04:16PM -18.8690 167.2787 220° Southwest  Level Estimated
04:17PM -18.9376 167.2170 220° Southwest  Level Estimated
04:18PM -19.0062 167.1553 220° Southwest  Level Estimated
04:19PM -19.0748 167.0935 220° Southwest  Level Estimated
04:20PM -19.1433 167.0317 220° Southwest  Level Estimated
04:21PM -19.2119 166.9698 220° Southwest  Level Estimated
04:22PM -19.2804 166.9078 220° Southwest  Level Estimated
04:23PM -19.3489 166.8459 220° Southwest  Level Estimated
04:24PM -19.4174 166.7838 221° Southwest  Level Estimated
04:25PM -19.4858 166.7217 221° Southwest  Level Estimated
04:26PM -19.5543 166.6596 221° Southwest  Level Estimated
04:27PM -19.6227 166.5974 221° Southwest  Level Estimated
04:28PM -19.6911 166.5351 221° Southwest  Level Estimated
04:29PM -19.7595 166.4728 221° Southwest  Level Estimated
04:30PM -19.8278 166.4104 221° Southwest  Level Estimated
04:31PM -19.8961 166.3480 221° Southwest  Level Estimated
04:32PM -19.9645 166.2856 221° Southwest  Level Estimated
04:33PM -20.0327 166.2230 221° Southwest  Level Estimated
04:34PM -20.1010 166.1604 221° Southwest  Level Estimated
04:35PM -20.1692 166.0978 221° Southwest  Level Estimated
04:36PM -20.2375 166.0351 221° Southwest  Level Estimated
04:37PM -20.3057 165.9724 221° Southwest  Level Estimated
04:38PM -20.3738 165.9096 221° Southwest  Level Estimated
04:39PM -20.4420 165.8468 221° Southwest  Level Estimated
04:40PM -20.5101 165.7838 221° Southwest  Level Estimated
04:41PM -20.5782 165.7209 221° Southwest  Level Estimated
04:42PM -20.6463 165.6579 221° Southwest  Level Estimated
04:43PM -20.7144 165.5948 221° Southwest  Level Estimated
04:44PM -20.7824 165.5316 221° Southwest  Level Estimated
04:45PM -20.8504 165.4684 221° Southwest  Level Estimated
04:46PM -20.9184 165.4052 221° Southwest  Level Estimated
04:47PM -20.9864 165.3419 221° Southwest  Level Estimated
04:48PM -21.0543 165.2785 221° Southwest  Level Estimated
04:49PM -21.1223 165.2151 221° Southwest  Level Estimated
04:50PM -21.1902 165.1516 221° Southwest  Level Estimated
04:51PM -21.2580 165.0881 221° Southwest  Level Estimated
04:51PM -21.5094 162.8273 235° Southwest 38,000  Level Aus ATC (Calculated)
04:53PM -21.5999 162.6904 235° Southwest  Level FlightAware Approximate
04:54PM -21.6488 162.6163 235° Southwest  Level FlightAware Approximate
04:54PM -21.7116 162.5209 235° Southwest 38,000  Level Aus ATC (Calculated)
04:56PM -21.8019 162.3836 235° Southwest  Level FlightAware Approximate
04:56PM -21.8335 162.3353 235° Southwest 38,000  Level Aus ATC (Calculated)
04:57PM -21.8506 162.3093 235° Southwest  Level FlightAware Approximate
04:57PM -21.9476 162.1611 235° Southwest 38,000  Level Aus ATC (Calculated)
04:57PM -22.0010 162.0793 235° Southwest 38,000  Level Aus ATC (Calculated)
04:58PM -22.0527 162.0000 235° Southwest 38,000  Level Aus ATC (Calculated)
05:00PM -22.1157 161.9032 235° Southwest  Level FlightAware Approximate
05:01PM -22.1636 161.8297 235° Southwest  Level FlightAware Approximate
05:02PM -22.2114 161.7561 235° Southwest  Level FlightAware Approximate
05:02PM -22.3525 161.5381 235° Southwest 38,000  Level Aus ATC (Calculated)
05:03PM -22.2591 161.6824 235° Southwest  Level FlightAware Approximate
05:04PM -22.4041 161.4581 235° Southwest  Level FlightAware Approximate
05:05PM -22.4517 161.3843 235° Southwest  Level FlightAware Approximate
05:06PM -22.4993 161.3103 235° Southwest  Level FlightAware Approximate
05:07PM -22.5469 161.2364 235° Southwest  Level FlightAware Approximate
05:08PM -22.5944 161.1624 235° Southwest  Level FlightAware Approximate
05:09PM -22.6419 161.0883 235° Southwest  Level FlightAware Approximate
05:10PM -22.6894 161.0141 235° Southwest  Level FlightAware Approximate
05:11PM -22.7368 160.9400 235° Southwest  Level FlightAware Approximate
05:12PM -22.7842 160.8657 235° Southwest  Level FlightAware Approximate
05:13PM -22.8315 160.7915 235° Southwest  Level FlightAware Approximate
05:14PM -22.8788 160.7171 235° Southwest  Level FlightAware Approximate
05:15PM -22.9261 160.6427 235° Southwest  Level FlightAware Approximate
05:16PM -22.9734 160.5683 235° Southwest  Level FlightAware Approximate
05:17PM -23.0206 160.4938 235° Southwest  Level FlightAware Approximate
05:18PM -23.0678 160.4193 235° Southwest  Level FlightAware Approximate
05:19PM -23.1149 160.3447 235° Southwest  Level FlightAware Approximate
05:20PM -23.1620 160.2700 236° Southwest  Level FlightAware Approximate
05:21PM -23.2091 160.1953 236° Southwest  Level FlightAware Approximate
05:22PM -23.2561 160.1206 236° Southwest  Level FlightAware Approximate
05:23PM -23.3031 160.0458 236° Southwest  Level FlightAware Approximate
05:24PM -23.3501 159.9709 236° Southwest  Level FlightAware Approximate
05:25PM -23.3970 159.8960 236° Southwest  Level FlightAware Approximate
05:26PM -23.4439 159.8211 236° Southwest  Level FlightAware Approximate
05:27PM -23.4908 159.7460 236° Southwest  Level FlightAware Approximate
05:28PM -23.5376 159.6710 236° Southwest  Level FlightAware Approximate
05:29PM -23.5844 159.5959 236° Southwest  Level FlightAware Approximate
05:29PM -24.1961 158.6089 236° Southwest 38,000  Level Aus ATC (Calculated)
05:30PM -24.2430 158.5324 236° Southwest  Level FlightAware Approximate
05:31PM -24.2899 158.4559 236° Southwest  Level FlightAware Approximate
05:31PM -24.3599 158.3414 236° Southwest 38,000  Level Aus ATC (Calculated)
05:33PM -24.4422 158.2065 236° Southwest  Level FlightAware Approximate
05:34PM -24.4886 158.1302 236° Southwest  Level FlightAware Approximate
05:35PM -24.5351 158.0537 236° Southwest  Level FlightAware Approximate
05:36PM -24.5815 157.9772 236° Southwest  Level FlightAware Approximate
05:37PM -24.6279 157.9006 236° Southwest  Level FlightAware Approximate
05:38PM -24.6742 157.8240 236° Southwest  Level FlightAware Approximate
05:38PM -24.8485 157.5347 237° Southwest 38,000  Level Aus ATC (Calculated)
05:40PM -24.9269 157.4040 237° Southwest  Level FlightAware Approximate
05:41PM -24.9730 157.3270 237° Southwest  Level FlightAware Approximate
05:42PM -25.0190 157.2499 237° Southwest  Level FlightAware Approximate
05:43PM -25.0650 157.1728 237° Southwest  Level FlightAware Approximate
05:44PM -25.1110 157.0957 237° Southwest  Level FlightAware Approximate
05:45PM -25.1569 157.0184 237° Southwest  Level FlightAware Approximate
05:46PM -25.2028 156.9411 237° Southwest  Level FlightAware Approximate
05:47PM -25.2486 156.8638 237° Southwest  Level FlightAware Approximate
05:48PM -25.2944 156.7864 237° Southwest  Level FlightAware Approximate
05:49PM -25.3402 156.7089 237° Southwest  Level FlightAware Approximate
05:49PM -25.6209 156.2310 57° Northeast 38,000  Level Aus ATC (Calculated)
05:50PM -25.6848 156.1216 57° Northeast 38,000  Level Aus ATC (Calculated)
05:52PM -25.7650 156.0050 229° Southwest  Level FlightAware Approximate
05:52PM -25.0743 157.1452 229° Southwest 398 458 38,000  Level Aus ATC (RADAR)
05:53PM -25.0989 157.1001 239° Southwest 399 459 38,000  Level Aus ATC (RADAR)
05:53PM -25.1256 157.0576 235° Southwest 399 459 38,000  Level Aus ATC (RADAR)
05:54PM -25.1625 156.9974 236° Southwest 399 459 38,000  Level Aus ATC (RADAR)
05:54PM -25.2045 156.9287 236° Southwest 399 459 38,000  Level Aus ATC (RADAR)
05:55PM -25.2252 156.8939 237° Southwest 400 460 38,000  Level Aus ATC (RADAR)
05:55PM -25.2639 156.8347 234° Southwest 400 460 38,000  Level Aus ATC (RADAR)
05:56PM -25.3115 156.7579 235° Southwest 399 459 38,000  Level Aus ATC (RADAR)
05:56PM -25.3320 156.7229 237° Southwest 399 459 38,000  Level Aus ATC (RADAR)
05:58PM -25.4298 156.5577 237° Southwest 399 459 38,000  Level Aus ATC (RADAR)
05:58PM -25.4505 156.5229 237° Southwest 399 459 38,000  Level Aus ATC (RADAR)
05:59PM -25.4860 156.4614 237° Southwest 400 460 38,000  Level Aus ATC (RADAR)
05:59PM -25.5215 156.4002 237° Southwest 399 459 38,000 60 Level Aus ATC (RADAR)
06:00PM -25.5627 156.3310 237° Southwest 398 458 38,100 60 Climbing Aus ATC (RADAR)
06:01PM -25.5925 156.2784 238° Southwest 398 458 38,100 -120 Level Aus ATC (RADAR)
06:01PM -25.6119 156.2462 237° Southwest 404 465 38,000  Descending FlightAware ADS-B (EKCH / CPH)
06:01PM -25.6327 156.2083 238° Southwest 398 458 38,100 120 Climbing Aus ATC (RADAR)
06:03PM -25.7186 156.0625 237° Southwest 396 456 38,200 -120 Climbing Aus ATC (RADAR)
06:03PM -25.7306 156.0491 230° Southwest 402 463 38,000  Descending FlightAware ADS-B (EKCH / CPH)
06:04PM -25.8041 155.9542 230° Southwest 397 457 38,200  Climbing Aus ATC (RADAR)
06:04PM -25.8162 155.9393 229° Southwest 402 463 38,000  Descending FlightAware ADS-B (EKCH / CPH)
06:05PM -25.8651 155.8765 229° Southwest 397 457 38,200  Climbing Aus ATC (RADAR)
06:05PM -25.8745 155.8645 229° Southwest 401 461 38,000 -180 Descending FlightAware ADS-B (EKCH / CPH)
06:06PM -25.9508 155.7666 229° Southwest 402 463 38,000 120 Level FlightAware ADS-B (EKCH / CPH)
06:06PM -25.9863 155.7209 229° Southwest 397 457 38,200  Climbing Aus ATC (RADAR)
06:07PM -26.0232 155.6734 229° Southwest 403 464 38,000 -240 Descending FlightAware ADS-B (EKCH / CPH)
06:07PM -26.0578 155.6286 230° Southwest 404 465 38,000  Level FlightAware ADS-B (EKCH / CPH)
06:08PM -26.0947 155.5809 229° Southwest 404 465 38,000  Level FlightAware ADS-B (EKCH / CPH)
06:09PM -26.1446 155.5163 229° Southwest 406 467 38,000  Level FlightAware ADS-B (EKCH / CPH)
06:09PM -26.1943 155.4520 230° Southwest 406 467 38,000  Level FlightAware ADS-B (EKCH / CPH)
06:10PM -26.2420 155.3901 229° Southwest 407 468 38,000  Level FlightAware ADS-B (EKCH / CPH)
06:10PM -26.2770 155.3448 229° Southwest 407 468 38,000  Level FlightAware ADS-B (EKCH / CPH)
06:11PM -26.3163 155.2938 230° Southwest 408 470 38,000  Level FlightAware ADS-B (EKCH / CPH)
06:11PM -26.3534 155.2455 230° Southwest 408 470 38,000  Level FlightAware ADS-B (EKCH / CPH)
06:12PM -26.3901 155.1976 230° Southwest 407 468 38,000  Level FlightAware ADS-B (EKCH / CPH)
06:12PM -26.4252 155.1516 230° Southwest 407 468 38,000  Level FlightAware ADS-B (EKCH / CPH)
06:13PM -26.4633 155.1019 230° Southwest 406 467 38,000  Level FlightAware ADS-B (EKCH / CPH)
06:13PM -26.4999 155.0542 230° Southwest 406 467 38,000  Level FlightAware ADS-B (EKCH / CPH)
06:14PM -26.5375 155.0052 230° Southwest 405 466 38,000  Level FlightAware ADS-B (EKCH / CPH)
06:15PM -26.5857 154.9417 230° Southwest 405 466 38,000 120 Level FlightAware ADS-B (EKCH / CPH)
06:15PM -26.6257 154.8889 230° Southwest 399 459 38,200  Climbing Aus ATC (RADAR)
06:15PM -26.6336 154.8791 230° Southwest 404 465 38,000 -360 Descending FlightAware ADS-B (EKCH / CPH)
06:16PM -26.6701 154.8312 230° Southwest 404 465 38,000  Level FlightAware ADS-B (EKCH / CPH)
06:16PM -26.7012 154.7902 230° Southwest 403 464 38,000  Level FlightAware ADS-B (EKCH / CPH)
06:17PM -26.7431 154.7349 230° Southwest 402 463 38,000  Level FlightAware ADS-B (EKCH / CPH)
06:17PM -26.7901 154.6733 230° Southwest 402 463 38,000 60 Level FlightAware ADS-B (EKCH / CPH)
06:18PM -26.8302 154.6192 230° Southwest 399 459 38,100  Climbing Aus ATC (RADAR)
06:18PM -26.8332 154.6163 230° Southwest 402 463 38,000 -180 Descending FlightAware ADS-B (EKCH / CPH)
06:19PM -26.8752 154.5608 230° Southwest 402 463 38,000  Level FlightAware ADS-B (EKCH / CPH)
06:19PM -26.9110 154.5136 230° Southwest 401 461 38,000  Level FlightAware ADS-B (EKCH / CPH)
06:20PM -26.9473 154.4657 230° Southwest 401 461 38,000  Level FlightAware ADS-B (EKCH / CPH)
06:20PM -26.9908 154.4079 230° Southwest 400 460 38,000  Level FlightAware ADS-B (EKCH / CPH)
06:21PM -27.0289 154.3573 230° Southwest 400 460 38,000  Level FlightAware ADS-B (EKCH / CPH)
06:21PM -27.0656 154.3085 230° Southwest 399 459 38,000  Level FlightAware ADS-B (EKCH / CPH)
06:22PM -27.1117 154.2471 230° Southwest 398 458 38,000  Level FlightAware ADS-B (EKCH / CPH)
06:22PM -27.1495 154.1967 230° Southwest 398 458 38,000  Level FlightAware ADS-B (EKCH / CPH)
06:23PM -27.1852 154.1490 230° Southwest 397 457 38,000  Level FlightAware ADS-B (EKCH / CPH)
06:24PM -27.2321 154.0865 230° Southwest 398 458 38,000  Level FlightAware ADS-B (EKCH / CPH)
06:24PM -27.2679 154.0386 230° Southwest 399 459 38,000  Level FlightAware ADS-B (EKCH / CPH)
06:25PM -27.3020 153.9929 230° Southwest 399 459 38,000  Level FlightAware ADS-B (EKCH / CPH)
06:25PM -27.3364 153.9469 230° Southwest 400 460 38,000  Level FlightAware ADS-B (EKCH / CPH)
06:26PM -27.3740 153.8965 230° Southwest 403 464 38,000  Level FlightAware ADS-B (EKCH / CPH)
06:26PM -27.4156 153.8406 230° Southwest 403 464 38,000  Level FlightAware ADS-B (YTWB)
06:27PM -27.4523 153.7913 230° Southwest 402 463 38,000  Level FlightAware ADS-B (YTWB)
06:27PM -27.4936 153.7356 230° Southwest 403 464 38,000  Level FlightAware ADS-B (EKCH / CPH)
06:28PM -27.5292 153.6876 230° Southwest 403 464 38,000  Level FlightAware ADS-B (EKCH / CPH)
06:28PM -27.5628 153.6424 230° Southwest 403 464 38,000  Level FlightAware ADS-B (EKCH / CPH)
06:29PM -27.6017 153.5897 230° Southwest 404 465 38,000  Level FlightAware ADS-B (EKCH / CPH)
06:29PM -27.6363 153.5428 230° Southwest 404 465 38,000  Level FlightAware ADS-B (EKCH / CPH)
06:30PM -27.6711 153.4958 230° Southwest 403 464 38,000  Level FlightAware ADS-B (EKCH / CPH)
06:30PM -27.7147 153.4367 230° Southwest 403 464 38,000  Level FlightAware ADS-B (YTWB)
06:31PM -27.7568 153.3796 230° Southwest 403 464 38,000  Level FlightAware ADS-B (EKCH / CPH)
06:31PM -27.7920 153.3316 230° Southwest 403 464 38,000  Level FlightAware ADS-B (EKCH / CPH)
06:32PM -27.8272 153.2836 230° Southwest 403 464 38,000  Level FlightAware ADS-B (EKCH / CPH)
06:32PM -27.8590 153.2402 230° Southwest 403 464 38,000  Level FlightAware ADS-B (EKCH / CPH)
06:33PM -27.8991 153.1857 230° Southwest 404 465 38,000  Level FlightAware ADS-B (EKCH / CPH)
06:33PM -27.9350 153.1368 230° Southwest 403 464 38,000  Level FlightAware ADS-B (EKCH / CPH)
06:34PM -27.9458 153.1222 230° Southwest 403 464 38,000  Level FlightAware ADS-B (YENO)
06:34PM -27.9824 153.0721 231° Southwest 404 465 38,000  Level FlightAware ADS-B (EKCH / CPH)
06:35PM -28.0186 153.0224 231° Southwest 404 465 38,000  Level FlightAware ADS-B (EKCH / CPH)
06:35PM -28.0535 152.9744 231° Southwest 405 466 38,000  Level FlightAware ADS-B (EKCH / CPH)
06:36PM -28.0939 152.9295 217° Southwest 410 472 38,000  Level FlightAware ADS-B (EKCH / CPH)
06:36PM -28.1255 152.9092 204° Southwest 419 482 38,000  Level FlightAware ADS-B (EKCH / CPH)
06:36PM -28.1796 152.8849 202° Southwest 422 486 38,000  Level FlightAware ADS-B (EKCH / CPH)
06:37PM -28.2451 152.8556 202° Southwest 415 478 38,000  Level FlightAware ADS-B (YTWB)
06:38PM -28.3091 152.8270 202° Southwest 423 487 38,000  Level FlightAware ADS-B (EKCH / CPH)
06:38PM -28.3649 152.8023 201° Southwest 424 488 38,000  Level FlightAware ADS-B (EKCH / CPH)
06:39PM -28.4545 152.7625 202° Southwest 424 488 38,000  Level FlightAware ADS-B (EKCH / CPH)
06:39PM -28.5108 152.7372 202° Southwest 424 488 38,000  Level FlightAware ADS-B (EKCH / CPH)
06:40PM -28.5624 152.7139 202° Southwest 423 487 38,000  Level FlightAware ADS-B (EKCH / CPH)
06:40PM -28.6282 152.6844 202° Southwest 416 479 38,000  Level FlightAware ADS-B (YTWB)
06:41PM -28.6843 152.6593 202° Southwest 416 479 38,000  Level FlightAware ADS-B (YTWB)
06:42PM -28.7480 152.6307 202° Southwest 424 488 38,000  Level FlightAware ADS-B (EKCH / CPH)
06:42PM -28.8003 152.6071 202° Southwest 423 487 38,000  Level FlightAware ADS-B (EKCH / CPH)
06:43PM -28.8559 152.5822 202° Southwest 423 487 38,000  Level FlightAware ADS-B (EKCH / CPH)
06:43PM -28.9121 152.5569 202° Southwest 422 486 38,000  Level FlightAware ADS-B (EKCH / CPH)
06:44PM -28.9669 152.5322 202° Southwest 422 486 38,000  Level FlightAware ADS-B (EKCH / CPH)
06:44PM -29.0212 152.5076 202° Southwest 422 486 38,000  Level FlightAware ADS-B (EKCH / CPH)
06:45PM -29.0733 152.4840 202° Southwest 422 486 38,000  Level FlightAware ADS-B (EKCH / CPH)
06:45PM -29.1299 152.4584 202° Southwest 423 487 38,000  Level FlightAware ADS-B (EKCH / CPH)
06:46PM -29.1838 152.4340 202° Southwest 423 487 38,000  Level FlightAware ADS-B (EKCH / CPH)
06:46PM -29.2337 152.4113 202° Southwest 423 487 38,000  Level FlightAware ADS-B (EKCH / CPH)
06:47PM -29.2923 152.3846 202° Southwest 423 487 38,000  Level FlightAware ADS-B (EKCH / CPH)
06:47PM -29.3484 152.3591 202° Southwest 424 488 38,000  Level FlightAware ADS-B (EKCH / CPH)
06:48PM -29.4032 152.3342 202° Southwest 424 488 38,000  Level FlightAware ADS-B (EKCH / CPH)
06:48PM -29.4542 152.3110 202° Southwest 425 489 38,000  Level FlightAware ADS-B (EKCH / CPH)
06:49PM -29.5104 152.2854 202° Southwest 426 490 38,000  Level FlightAware ADS-B (EKCH / CPH)
06:49PM -29.5868 152.2506 202° Southwest 425 489 38,000  Level FlightAware ADS-B (EKCH / CPH)
06:50PM -29.6386 152.2270 202° Southwest 425 489 38,000  Level FlightAware ADS-B (EKCH / CPH)
06:50PM -29.6945 152.2014 202° Southwest 425 489 38,000  Level FlightAware ADS-B (EKCH / CPH)
06:51PM -29.7505 152.1758 202° Southwest 424 488 38,000  Level FlightAware ADS-B (EKCH / CPH)
06:51PM -29.7996 152.1532 202° Southwest 423 487 38,000  Level FlightAware ADS-B (EKCH / CPH)
06:52PM -29.8594 152.1259 202° Southwest 422 486 38,000  Level FlightAware ADS-B (EKCH / CPH)
06:52PM -29.9138 152.1008 202° Southwest 420 483 38,000 180 Level FlightAware ADS-B (EKCH / CPH)
06:53PM -29.9674 152.0753 202° Southwest 419 482 38,200  Climbing Aus ATC (RADAR)
06:53PM -29.9799 152.0702 202° Southwest 420 483 38,000 -240 Descending FlightAware ADS-B (EKCH / CPH)
06:54PM -30.0590 152.0338 202° Southwest 422 486 38,000 120 Level FlightAware ADS-B (EKCH / CPH)
06:54PM -30.1115 152.0078 202° Southwest 419 482 38,200 180 Climbing Aus ATC (RADAR)
06:54PM -30.1570 151.9870 202° Southwest 422 486 38,200  Level Aus ATC (RADAR)
06:55PM -30.2294 151.9534 202° Southwest 421 484 38,200 -120 Level Aus ATC (RADAR)
06:56PM -30.3107 151.9153 202° Southwest 422 486 38,100 -180 Descending Aus ATC (RADAR)
06:56PM -30.3600 151.8946 202° Southwest 421 484 38,000  Descending FlightAware ADS-B (EKCH / CPH)
06:57PM -30.4555 151.8484 202° Southwest 422 486 38,100  Climbing Aus ATC (RADAR)
06:57PM -30.4803 151.8385 202° Southwest 422 486 38,000  Descending FlightAware ADS-B (EKCH / CPH)
06:59PM -30.6452 151.7600 202° Southwest 418 481 38,100  Climbing Aus ATC (RADAR)
06:59PM -30.6901 151.7389 202° Southwest 419 482 38,100  Level Aus ATC (RADAR)
07:00PM -30.7625 151.7055 202° Southwest 420 483 38,100  Level Aus ATC (RADAR)
07:01PM -30.8349 151.6714 202° Southwest 422 486 38,100  Level Aus ATC (RADAR)
07:01PM -30.8983 151.6422 202° Southwest 422 486 38,100 -180 Level Aus ATC (RADAR)
07:01PM -30.9010 151.6418 202° Southwest 423 487 38,000 -180 Descending FlightAware ADS-B (YPLB)
07:02PM -30.9637 151.6124 202° Southwest 424 488 38,000 180 Level FlightAware ADS-B (YPLB)
07:02PM -31.0259 151.5819 202° Southwest 425 489 38,200 120 Climbing Aus ATC (RADAR)
07:03PM -31.0992 151.5477 202° Southwest 427 491 38,200 -240 Level Aus ATC (RADAR)
07:03PM -31.1267 151.5355 202° Southwest 428 493 38,000 -300 Descending FlightAware ADS-B (YPLB)
07:04PM -31.1813 151.5096 202° Southwest 429 494 38,000 60 Level FlightAware ADS-B (YPLB)
07:04PM -31.2461 151.4775 202° Southwest 429 494 38,100  Climbing Aus ATC (RADAR)
07:05PM -31.2563 151.4741 202° Southwest 430 495 38,000 -180 Descending FlightAware ADS-B (YPLB)
07:05PM -31.3141 151.4467 202° Southwest 431 496 38,000  Level FlightAware ADS-B (YPLB)
07:06PM -31.3670 151.4217 202° Southwest 431 496 38,000  Level FlightAware ADS-B (YPLB)
07:06PM -31.4327 151.3912 200° South 432 497 38,000  Level FlightAware ADS-B (YPLB)
07:07PM -31.5107 151.3569 200° South 433 498 38,000  Level FlightAware ADS-B (YPLB)
07:08PM -31.5932 151.3202 200° South 433 498 38,000 120 Level FlightAware ADS-B (YPLB)
07:08PM -31.6550 151.2915 200° South 430 495 38,200  Climbing Aus ATC (RADAR)
07:08PM -31.6648 151.2880 200° South 434 499 38,000 -360 Descending FlightAware ADS-B (YPLB)
07:09PM -31.7251 151.2612 200° South 435 501 38,000  Level FlightAware ADS-B (YPLB)
07:09PM -31.7983 151.2282 201° Southwest 435 501 38,000  Level FlightAware ADS-B (YPLB)
07:10PM -31.8580 151.2011 201° Southwest 434 499 38,000  Level FlightAware ADS-B (YPLB)
07:11PM -31.9245 151.1711 201° Southwest 433 498 38,000  Level FlightAware ADS-B (YSBK / BWU)
07:11PM -31.9863 151.1433 200° South 432 497 38,000 -240 Level FlightAware ADS-B (YPLB)
07:12PM -32.0387 151.1199 201° Southwest 426 490 37,800 -780 Descending FlightAware ADS-B (YSBK / BWU)
07:12PM -32.0862 151.0984 201° Southwest 397 457 37,200 -2,700 Descending FlightAware ADS-B (YSBK / BWU)
07:13PM -32.1532 151.0679 201° Southwest 417 480 34,700 -4,020 Descending FlightAware ADS-B (YSBK / BWU)
07:13PM -32.1812 151.0570 196° South 430 495 34,000 -4,200 Descending FlightAware ADS-B (YPLB)
07:14PM -32.2640 151.0462 180° South 464 534 31,200 -3,720 Descending FlightAware ADS-B (YPLB)
07:14PM -32.2747 151.0462 360° North 464 534 31,000 -2,520 Descending FlightAware ADS-B (YPLB)
07:14PM -32.3021 151.0461 360° North 461 531 30,500 -2,100 Descending FlightAware ADS-B (YPLB)
07:14PM -32.3177 151.0461 201° Southwest 417 480 30,200 -2,400 Descending FlightAware ADS-B (YSBK / BWU)
07:15PM -32.4090 151.0461 180° South 449 517 28,400 -2,400 Descending FlightAware ADS-B (YSBK / BWU)
07:15PM -32.4692 151.0461 180° South 440 506 27,400 -2,280 Descending FlightAware ADS-B (YSBK / BWU)
07:16PM -32.5140 151.0462 360° North 432 497 26,600 -2,580 Descending FlightAware ADS-B (YPLB)
07:16PM -32.5533 151.0461 180° South 429 494 25,700 -2,700 Descending FlightAware ADS-B (YSBK / BWU)
07:16PM -32.6128 151.0457 180° South 428 493 24,300 -2,700 Descending FlightAware ADS-B (YSBK / BWU)
07:17PM -32.6738 151.0454 180° South 423 487 23,000 -2,400 Descending FlightAware ADS-B (YSBK / BWU)
07:17PM -32.7215 151.0451 180° South 413 475 21,900 -2,220 Descending FlightAware ADS-B (YSBK / BWU)
07:18PM -32.7883 151.0450 180° South 405 466 20,800 -2,340 Descending FlightAware ADS-B (YSBK / BWU)
07:18PM -32.8079 151.0450 360° North 402 463 20,400 -2,100 Descending FlightAware ADS-B (YPLB)
07:18PM -32.8238 151.0450 180° South 399 459 20,100 -2,400 Descending FlightAware ADS-B (YSBK / BWU)
07:18PM -32.8436 151.0450 360° North 397 457 19,600 -2,400 Descending FlightAware ADS-B (YPLB)
07:19PM -32.8621 151.0450 180° South 394 453 19,300 -2,040 Descending FlightAware ADS-B (YSBK / BWU)
07:19PM -32.8673 151.0450 180° South 391 450 18,900 -2,100 Descending FlightAware ADS-B (YSBK / BWU)
07:19PM -32.9348 151.0447 180° South 384 442 17,900 -1,920 Descending FlightAware ADS-B (YSBK / BWU)
07:20PM -32.9671 151.0446 360° North 380 437 17,400 -1,800 Descending FlightAware ADS-B (YPLB)
07:20PM -32.9865 151.0445 180° South 376 433 17,000 -2,100 Descending FlightAware ADS-B (YSBK / BWU)
07:20PM -33.0391 151.0445 180° South 373 429 15,900 -2,340 Descending FlightAware ADS-B (YSBK / BWU)
07:20PM -33.0509 151.0444 180° South 371 427 15,600 -2,580 Descending FlightAware ADS-B (YRPA)
07:21PM -33.1060 151.0443 180° South 358 412 14,200 -2,640 Descending FlightAware ADS-B (YSBK / BWU)
07:21PM -33.1149 151.0443 180° South 355 409 13,700 -2,580 Descending FlightAware ADS-B (YSBK / BWU)
07:22PM -33.1694 151.0433 181° South 349 402 12,500 -2,640 Descending FlightAware ADS-B (YSBK / BWU)
07:22PM -33.1886 151.0427 181° South 352 405 12,000 -1,680 Descending FlightAware ADS-B (YPLB)
07:22PM -33.2328 151.0417 181° South 342 394 11,400 -1,200 Descending FlightAware ADS-B (YSBK / BWU)
07:23PM -33.2831 151.0405 181° South 329 379 10,800 -1,320 Descending FlightAware ADS-B (YSBK / BWU)
07:23PM -33.3274 151.0395 181° South 314 361 10,100 -1,080 Descending FlightAware ADS-B (YSBK / BWU)
07:23PM -33.3516 151.0395 180° South 303 349 10,000 -780 Descending FlightAware ADS-B (YRAY)
07:24PM -33.3813 151.0437 170° South 286 329 9,600 -1,260 Descending FlightAware ADS-B (YSBK / BWU)
07:24PM -33.4081 151.0504 168° South 287 330 9,100 -1,680 Descending FlightAware ADS-B (YSBK / BWU)
07:24PM -33.4308 151.0560 168° South 287 330 8,600 -1,560 Descending FlightAware ADS-B (YRPA)
07:25PM -33.4465 151.0600 167° South 287 330 8,400 -1,440 Descending FlightAware ADS-B (YPLB)
07:25PM -33.4594 151.0634 167° South 288 331 8,100 -1,440 Descending FlightAware ADS-B (YPLB)
07:25PM -33.4782 151.0681 168° South 288 331 7,800 -1,500 Descending FlightAware ADS-B (YSSY / SYD)
07:25PM -33.4982 151.0732 168° South 287 330 7,300 -1,560 Descending FlightAware ADS-B (YSBK / BWU)
07:26PM -33.5142 151.0772 167° South 286 329 7,100 -1,320 Descending FlightAware ADS-B (YPLB)
07:26PM -33.5266 151.0804 167° South 286 329 6,900 -1,680 Descending FlightAware ADS-B (YPLB)
07:26PM -33.5376 151.0832 167° South 285 328 6,600 -1,620 Descending FlightAware ADS-B (YPLB)
07:26PM -33.5513 151.0868 167° South 285 328 6,400 -1,500 Descending FlightAware ADS-B (YPLB)
07:26PM -33.5643 151.0901 167° South 285 328 6,100 -1,440 Descending FlightAware ADS-B (YPLB)
07:26PM -33.5779 151.0937 167° South 284 327 5,900 -1,500 Descending FlightAware ADS-B (YPLB)
07:27PM -33.5898 151.0967 167° South 284 327 5,600 -1,500 Descending FlightAware ADS-B (YPLB)
07:27PM -33.6039 151.1003 167° South 284 327 5,400 -1,320 Descending FlightAware ADS-B (YPLB)
07:27PM -33.6243 151.1056 168° South 286 329 5,000 -1,080 Descending FlightAware ADS-B (YRAY)
07:27PM -33.6393 151.1095 167° South 275 316 4,900 -600 Descending FlightAware ADS-B (YPLB)
07:27PM -33.6533 151.1130 168° South 269 310 4,800 -720 Descending FlightAware ADS-B (YPLB)
07:28PM -33.6676 151.1160 171° South 263 303 4,600 -600 Descending FlightAware ADS-B (YRAY)
07:28PM -33.6787 151.1182 170° South 258 297 4,600 -480 Level FlightAware ADS-B (YPLB)
07:28PM -33.7010 151.1232 169° South 251 289 4,400 -720 Descending FlightAware ADS-B (YSBK / BWU)
07:28PM -33.7069 151.1247 169° South 255 293 4,300 -600 Descending FlightAware ADS-B (YRAY)
07:28PM -33.7207 151.1285 167° South 242 278 4,200 -600 Descending FlightAware ADS-B (YSBK / BWU)
07:28PM -33.7292 151.1310 166° South 231 266 4,100 -900 Descending FlightAware ADS-B (YRAY)
07:29PM -33.7421 151.1347 167° South 236 272 3,900 -1,020 Descending FlightAware ADS-B (YSBK / BWU)
07:29PM -33.7623 151.1401 168° South 228 262 3,600 -1,200 Descending FlightAware ADS-B (YRAY)
07:29PM -33.7831 151.1452 168° South 229 264 3,200 -1,260 Descending FlightAware ADS-B (YRAY)
07:30PM -33.7968 151.1486 168° South 227 261 2,900 -1,260 Descending FlightAware ADS-B (YSBK / BWU)
07:30PM -33.8084 151.1516 167° South 220 253 2,700 -1,200 Descending FlightAware ADS-B (YPLB)
07:30PM -33.8242 151.1557 168° South 213 245 2,400 -1,080 Descending FlightAware ADS-B (YRAY)
07:30PM -33.8353 151.1587 167° South 208 239 2,200 -1,020 Descending FlightAware ADS-B (YPLB)
07:30PM -33.8517 151.1629 167° South 196 226 1,900 -1,080 Descending FlightAware ADS-B (YRAY)
07:31PM -33.8561 151.1641 167° South 192 221 1,800 -1,020 Descending FlightAware ADS-B (YPLB)
07:31PM -33.8683 151.1673 167° South 178 205 1,500 -1,140 Descending FlightAware ADS-B (YSBK / BWU)
07:31PM -33.8756 151.1691 167° South 170 196 1,300 -840 Descending FlightAware ADS-B (YPLB)
07:31PM -33.8977 151.1749 167° South 136 157 1,000 -780 Descending FlightAware ADS-B (YRAY)
07:32PM -33.8915 151.1732 167° South 146 168 900 -900 Descending FlightAware ADS-B (YPLB)
07:32PM -33.9103 151.1781 167° South 137 158 700 -720 Descending FlightAware ADS-B (YRAY)
07:32PM -33.9218 151.1811 168° South 133 153 500 -720 Descending FlightAware ADS-B (YRAY)
07:32PM -33.9254 151.1820 167° South 133 153 300 -780 Descending FlightAware ADS-B (YSBK / BWU)
07:33PM -33.9407 151.1860 168° South 135 155 100 -780 Descending FlightAware ADS-B (YRAY)